Farwell, MN (56327)

10:34 PM CST on December 21, 2014 (GMT -0600)
Hoffman MN | Change Station
CLOSE
Current Station
Personal Weather Station
Location: Hoffman, MN
Elevation: 1240 ft
Nearby Weather Stations

Elev 1240 ft 45.83 °N, 95.78 °W | Updated 1 minute ago

Fog
Fog
35.2 °F
Feels Like 26 °F
N
14.5
Wind Variable Wind from South
Gusts 19.7 mph

Today
High -- | Low -- °F
--% Chance of Precip.
Yesterday
High -- | Low -- °F
Precip. -- in
8:00 AM 4:40 PM
New Moon, 0% visible
Pressure 29.60 in
Visibility 3.0 miles
Clouds Overcast 400 ft
Windchill 26 °F
Dew Point 33 °F
Humidity 92%
Rainfall 0.00 in
Snow Depth Not available.
UV 0 out of 12
Pollen .10 out of 12
Air Quality Not available.
Flu Activity Not available.
SPECI KAXN 220419Z AUTO 15013KT 3SM BR OVC004 02/01 A2960 RMK AO2 T00170011

More Conditions Fewer Conditions

Pressure 29.60 in
Visibility 3.0 miles
Clouds Overcast 400 ft
Windchill 26 °F
Dew Point 33 °F
Humidity 92%
Rainfall 0.00 in
Snow Depth Not available.
UV 0 out of 12
Pollen .10 out of 12
Air Quality Not available.
Flu Activity Not available.
SPECI KAXN 220419Z AUTO 15013KT 3SM BR OVC004 02/01 A2960 RMK AO2 T00170011

More Conditions Fewer Conditions

10-Day Weather Forecast

Almanac

Astronomy

Dec. 21, 2014 Rise Set
Actual Time
Civil Twilight
Nautical Twilight
Astronomical Twilight
Moon
Length of Visible Light
Length of Day
Tomorrow will be .
, % of the Moon is Illuminated

Today's Extremes

State Highs State Lows

Community

WunderPhotos

Upload Photos

1,779,540 photos uploaded!

WunderBlogs® & News

Nearby

Air Quality

  Air Quality AQ Index Pollutant
Not available.

Snow Depth

Station Depth Elevation

Earthquake Activity

City Distance Mag. Time & Date
Minimum magnitude displayed is 2.5.

Coastal Water Temperatures

Place Temperature

Nearby Weather Stations